Time;durP1;ratioP1;P1;durP2;ratioP2;P2;SDS_P1;SDS_P2;PMS_P1;PMS_P2;Temp;Humidity;BMP_temperature;BMP_pressure;BME280_temperature;BME280_humidity;BME280_pressure;Samples;Min_cycle;Max_cycle;Signal;HPM_P1;HPM_P2
2023/01/01 00:01:38;;;;;;;1.63;0.65;;;21.30;54.80;;;;;;6127581;29;20052;-51
2023/01/01 00:04:41;;;;;;;2.03;0.77;;;21.40;55.00;;;;;;6128202;29;20076;-49
2023/01/01 00:07:43;;;;;;;1.55;0.55;;;21.30;55.00;;;;;;6128142;29;20036;-50
2023/01/01 00:10:45;;;;;;;1.95;0.50;;;21.30;55.00;;;;;;6127490;29;20064;-49
2023/01/01 00:13:49;;;;;;;1.45;0.90;;;21.30;55.10;;;;;;6127665;29;20052;-50
2023/01/01 00:16:53;;;;;;;1.80;0.70;;;21.20;55.10;;;;;;6127712;29;20044;-51
2023/01/01 00:19:54;;;;;;;1.92;0.63;;;21.30;55.10;;;;;;6127185;29;20076;-50
2023/01/01 00:22:56;;;;;;;;;;;21.30;55.10;;;;;;6127553;29;20044;-49
2023/01/01 00:25:58;;;;;;;1.00;0.65;;;21.30;55.20;;;;;;6127579;29;19930;-49
2023/01/01 00:29:00;;;;;;;;;;;21.30;55.10;;;;;;6127829;29;20048;-49
2023/01/01 00:32:01;;;;;;;;;;;21.30;55.20;;;;;;6126916;29;19975;-51
2023/01/01 00:35:03;;;;;;;3.15;0.60;;;21.20;55.10;;;;;;6159628;23;19946;-47
2023/01/01 00:38:06;;;;;;;1.30;0.50;;;21.20;55.00;;;;;;6151237;29;20044;-50
2023/01/01 00:41:08;;;;;;;1.63;0.60;;;21.30;55.20;;;;;;6133757;29;20043;-50
2023/01/01 00:44:09;;;;;;;1.67;0.68;;;21.20;55.20;;;;;;6134400;29;20051;-49
2023/01/01 00:47:11;;;;;;;1.30;0.60;;;21.20;55.20;;;;;;6150026;29;20527;-51
2023/01/01 00:50:12;;;;;;;;;;;21.20;55.20;;;;;;6150401;29;20050;-51
2023/01/01 00:53:14;;;;;;;0.95;0.50;;;21.20;55.30;;;;;;6150416;29;19922;-48
2023/01/01 00:56:15;;;;;;;1.30;0.60;;;21.20;55.20;;;;;;6133615;29;20059;-51
2023/01/01 00:59:17;;;;;;;1.38;0.50;;;21.20;55.20;;;;;;6151165;29;20035;-51
2023/01/01 01:02:18;;;;;;;1.25;0.60;;;21.20;55.20;;;;;;6150525;29;20043;-51
2023/01/01 01:05:20;;;;;;;1.48;0.68;;;21.30;55.30;;;;;;6150417;29;20055;-51
2023/01/01 01:08:22;;;;;;;;;;;21.30;55.90;;;;;;6151385;29;20040;-50
2023/01/01 01:11:31;;;;;;;1.85;0.88;;;21.20;55.20;;;;;;6149985;29;19961;-51
2023/01/01 01:14:33;;;;;;;2.00;0.60;;;21.30;55.20;;;;;;6149765;29;20071;-49
2023/01/01 01:17:36;;;;;;;1.95;0.60;;;21.30;55.20;;;;;;6150529;29;20043;-51
2023/01/01 01:20:37;;;;;;;1.48;0.70;;;21.20;55.10;;;;;;6150009;29;20044;-51
2023/01/01 01:23:39;;;;;;;;;;;21.10;55.10;;;;;;6150171;29;20059;-50
2023/01/01 01:26:41;;;;;;;1.02;0.70;;;21.20;55.20;;;;;;6149276;29;19927;-51
2023/01/01 01:29:42;;;;;;;1.25;0.70;;;21.10;55.10;;;;;;6150100;29;20040;-51
2023/01/01 01:32:43;;;;;;;;;;;21.20;55.10;;;;;;6150276;29;20051;-50
2023/01/01 01:35:50;;;;;;;1.02;0.40;;;21.30;55.20;;;;;;6139912;23;19923;-50
2023/01/01 01:38:53;;;;;;;1.27;0.65;;;21.30;55.10;;;;;;6109852;29;20044;-50
2023/01/01 01:41:55;;;;;;;1.63;0.70;;;21.20;55.00;;;;;;6109433;29;20044;-50
2023/01/01 01:44:58;;;;;;;1.30;0.55;;;21.20;55.00;;;;;;6125148;29;20048;-50
2023/01/01 01:48:00;;;;;;;2.80;0.50;;;21.20;55.00;;;;;;6109140;29;20052;-51
2023/01/01 01:51:02;;;;;;;1.00;0.40;;;21.20;55.00;;;;;;6126309;29;20028;-50
2023/01/01 01:54:09;;;;;;;0.75;0.50;;;21.30;55.00;;;;;;6125660;29;20052;-50
2023/01/01 01:57:12;;;;;;;1.50;0.60;;;21.10;54.80;;;;;;6125617;29;20464;-50
2023/01/01 02:00:15;;;;;;;1.33;0.50;;;21.20;54.90;;;;;;6124956;29;20169;-50
2023/01/01 02:03:21;;;;;;;1.77;0.68;;;21.20;54.80;;;;;;6125531;29;20481;-51
2023/01/01 02:06:23;;;;;;;1.73;0.85;;;21.30;54.90;;;;;;6108466;29;20040;-51
2023/01/01 02:09:26;;;;;;;0.98;0.50;;;21.20;54.80;;;;;;6125550;29;20044;-47
2023/01/01 02:12:28;;;;;;;1.02;0.60;;;21.20;54.80;;;;;;6125439;29;20055;-50
2023/01/01 02:15:35;;;;;;;1.25;0.47;;;21.20;54.70;;;;;;6125653;29;20056;-51
2023/01/01 02:18:45;;;;;;;0.95;0.45;;;21.20;54.70;;;;;;6124667;29;20104;-51
2023/01/01 02:21:58;;;;;;;1.25;0.50;;;21.10;54.60;;;;;;6125516;29;20044;-47
2023/01/01 02:25:10;;;;;;;1.20;0.50;;;21.30;54.60;;;;;;6124330;29;20072;-49
2023/01/01 02:28:20;;;;;;;2.05;0.70;;;21.20;54.50;;;;;;6125309;29;20044;-51
2023/01/01 02:31:26;;;;;;;1.58;0.45;;;21.20;54.50;;;;;;6110646;29;20044;-51
2023/01/01 02:34:34;;;;;;;0.77;0.40;;;21.30;54.50;;;;;;6125644;29;20067;-49
2023/01/01 02:37:36;;;;;;;1.27;0.50;;;21.10;54.30;;;;;;6108182;29;20103;-51
2023/01/01 02:40:43;;;;;;;1.00;0.40;;;21.20;54.30;;;;;;6125026;29;20051;-50
2023/01/01 02:43:44;;;;;;;1.73;0.75;;;21.10;54.10;;;;;;6108649;29;20033;-49
2023/01/01 02:46:47;;;;;;;1.10;0.50;;;21.30;54.20;;;;;;6126133;29;20056;-50
2023/01/01 02:49:58;;;;;;;1.40;0.60;;;21.20;54.10;;;;;;6129328;29;20049;-50
2023/01/01 02:53:09;;;;;;;1.30;0.50;;;21.10;53.90;;;;;;6129217;29;20044;-49
2023/01/01 02:56:18;;;;;;;1.10;0.30;;;21.20;53.90;;;;;;6129248;29;20044;-50
2023/01/01 03:03:04;;;;;;;0.43;0.30;;;21.20;53.90;;;;;;6100266;29;20048;-51
2023/01/01 03:09:38;;;;;;;1.00;0.38;;;21.10;53.80;;;;;;6128101;29;20048;-51
2023/01/01 03:12:46;;;;;;;1.80;0.47;;;21.20;53.90;;;;;;6128637;29;20040;-48
2023/01/01 03:15:58;;;;;;;1.92;0.63;;;21.20;53.90;;;;;;6111898;29;20075;-51
2023/01/01 03:19:11;;;;;;;1.33;0.50;;;21.20;53.90;;;;;;6128395;29;20044;-49
2023/01/01 03:22:16;;;;;;;0.75;0.30;;;21.20;54.00;;;;;;6127978;29;20040;-50
2023/01/01 03:25:21;;;;;;;1.17;0.50;;;21.20;54.00;;;;;;6127008;29;20064;-50
2023/01/01 03:28:27;;;;;;;1.65;0.60;;;21.10;54.00;;;;;;6111494;29;20043;-48
2023/01/01 03:31:30;;;;;;;1.27;0.85;;;21.10;54.00;;;;;;6127263;29;20052;-51
2023/01/01 03:34:36;;;;;;;2.88;0.60;;;21.20;54.10;;;;;;6142409;23;20178;-51
2023/01/01 03:37:37;;;;;;;0.90;0.30;;;21.10;54.70;;;;;;6127115;29;20048;-50
2023/01/01 03:40:39;;;;;;;1.63;0.52;;;21.20;54.20;;;;;;6127466;29;20048;-49
2023/01/01 03:43:48;;;;;;;1.52;0.40;;;21.20;54.20;;;;;;6127686;29;20044;-49
2023/01/01 03:46:49;;;;;;;0.90;0.40;;;21.20;54.30;;;;;;6127297;29;20052;-50
2023/01/01 03:49:52;;;;;;;1.58;0.50;;;21.10;54.20;;;;;;6127650;29;20047;-50
2023/01/01 03:53:00;;;;;;;0.55;0.40;;;21.10;54.30;;;;;;6127057;29;20072;-51
2023/01/01 03:56:12;;;;;;;1.95;0.60;;;21.00;54.30;;;;;;6127540;29;20052;-50
2023/01/01 03:59:18;;;;;;;1.00;0.40;;;21.30;54.50;;;;;;6126580;29;20417;-50
2023/01/01 04:02:25;;;;;;;1.00;0.30;;;21.20;54.50;;;;;;6111056;29;20044;-50
2023/01/01 04:05:28;;;;;;;1.23;0.40;;;21.20;54.50;;;;;;6127400;29;20072;-50
2023/01/01 04:08:32;;;;;;;0.82;0.30;;;21.20;54.50;;;;;;6126862;29;20134;-48
2023/01/01 04:14:50;;;;;;;2.20;0.60;;;21.20;54.60;;;;;;6127132;29;20052;-49
2023/01/01 04:17:51;;;;;;;1.13;0.45;;;21.20;54.60;;;;;;6126057;29;20055;-50
2023/01/01 04:20:53;;;;;;;0.80;0.40;;;21.20;54.70;;;;;;6126437;29;20047;-50
2023/01/01 04:23:55;;;;;;;1.02;0.40;;;21.10;54.60;;;;;;6126400;29;20056;-50
2023/01/01 04:26:56;;;;;;;1.27;0.55;;;21.20;54.70;;;;;;6126780;29;20045;-50
2023/01/01 04:29:58;;;;;;;;;;;21.10;54.70;;;;;;6127073;29;20128;-50
2023/01/01 04:32:59;;;;;;;0.75;0.30;;;21.10;54.70;;;;;;6125831;29;19926;-51
2023/01/01 04:36:02;;;;;;;;;;;21.10;54.70;;;;;;6125534;29;20063;-51
2023/01/01 04:39:04;;;;;;;1.50;0.60;;;21.10;54.70;;;;;;6125743;29;19930;-52
2023/01/01 04:42:06;;;;;;;0.90;0.40;;;21.10;54.70;;;;;;6125438;29;20120;-51
2023/01/01 04:45:08;;;;;;;;;;;21.10;54.70;;;;;;6125978;29;20055;-50
2023/01/01 04:48:10;;;;;;;1.15;0.40;;;21.00;54.70;;;;;;6125445;29;19923;-51
2023/01/01 04:51:14;;;;;;;1.10;0.40;;;21.20;54.80;;;;;;6125783;29;20092;-51
2023/01/01 04:54:15;;;;;;;1.25;0.45;;;21.10;54.80;;;;;;6108889;29;20076;-50
2023/01/01 04:57:17;;;;;;;2.05;0.52;;;21.00;54.70;;;;;;6125661;29;20036;-50
2023/01/01 05:00:20;;;;;;;1.17;0.40;;;21.10;54.80;;;;;;6125482;29;20067;-49
2023/01/01 05:03:21;;;;;;;1.17;0.30;;;21.10;54.80;;;;;;6125520;29;20051;-51
2023/01/01 05:06:24;;;;;;;0.70;0.30;;;21.10;54.70;;;;;;6125834;29;20076;-51
2023/01/01 05:09:25;;;;;;;0.85;0.50;;;20.90;54.60;;;;;;6124691;29;20054;-51
2023/01/01 05:12:29;;;;;;;;;;;21.00;54.70;;;;;;6126089;29;20052;-49
2023/01/01 05:15:30;;;;;;;1.10;0.40;;;21.20;54.80;;;;;;6125699;29;19923;-49
2023/01/01 05:18:33;;;;;;;1.10;0.40;;;21.10;54.70;;;;;;6125066;29;20108;-51
2023/01/01 05:21:37;;;;;;;0.45;0.25;;;21.10;54.60;;;;;;6125201;29;20044;-50
2023/01/01 05:24:38;;;;;;;0.68;0.40;;;21.00;54.50;;;;;;6125144;29;20052;-50
2023/01/01 05:27:40;;;;;;;0.50;0.30;;;21.00;54.50;;;;;;6125068;29;20041;-49
2023/01/01 05:30:41;;;;;;;;;;;21.10;54.40;;;;;;6125309;29;20055;-49
2023/01/01 05:33:43;;;;;;;1.55;0.28;;;21.10;54.50;;;;;;6132860;23;19923;-50
2023/01/01 05:36:45;;;;;;;0.40;0.25;;;20.70;54.20;;;;;;6124838;29;20048;-51
2023/01/01 05:39:48;;;;;;;0.77;0.40;;;20.90;54.20;;;;;;6125446;29;20052;-47
2023/01/01 05:42:49;;;;;;;0.80;0.40;;;21.10;54.10;;;;;;6125430;29;20182;-49
2023/01/01 05:46:01;;;;;;;;;;;21.10;54.10;;;;;;6124912;29;20048;-50
2023/01/01 05:49:03;;;;;;;0.60;0.30;;;21.10;53.90;;;;;;6124928;29;19923;-51
2023/01/01 05:52:05;;;;;;;0.75;0.32;;;21.10;54.00;;;;;;6107859;29;20048;-51
2023/01/01 05:55:07;;;;;;;1.63;0.50;;;21.10;54.00;;;;;;6125227;29;20044;-50
2023/01/01 05:58:08;;;;;;;1.42;0.60;;;21.10;53.90;;;;;;6124957;29;20056;-49
2023/01/01 06:01:12;;;;;;;0.57;0.20;;;21.10;53.80;;;;;;6124800;29;20486;-51
2023/01/01 06:04:13;;;;;;;0.40;0.22;;;21.10;53.70;;;;;;6124946;29;20051;-50
2023/01/01 06:07:16;;;;;;;0.73;0.35;;;21.00;53.60;;;;;;6124522;29;20059;-49
2023/01/01 06:10:17;;;;;;;1.92;0.50;;;21.00;53.50;;;;;;6124784;29;20393;-50
2023/01/01 06:13:19;;;;;;;1.27;0.40;;;21.00;53.50;;;;;;6123983;29;20052;-49
2023/01/01 06:16:20;;;;;;;;;;;21.10;53.50;;;;;;6125883;29;20051;-51
2023/01/01 06:19:22;;;;;;;;;;;21.00;53.50;;;;;;6124635;29;19923;-51
2023/01/01 06:22:24;;;;;;;0.75;0.30;;;21.00;53.50;;;;;;6127895;29;19923;-50
2023/01/01 06:25:25;;;;;;;1.25;0.40;;;20.90;53.40;;;;;;6128051;29;20040;-49
2023/01/01 06:28:27;;;;;;;0.85;0.25;;;21.00;53.40;;;;;;6127825;29;20044;-50
2023/01/01 06:31:29;;;;;;;1.15;0.50;;;20.90;53.30;;;;;;6128367;29;20044;-50
2023/01/01 06:34:38;;;;;;;1.02;0.40;;;20.90;53.30;;;;;;6135389;23;20055;-50
2023/01/01 06:37:40;;;;;;;0.52;0.30;;;20.90;53.30;;;;;;6127284;29;20405;-50
2023/01/01 06:40:41;;;;;;;1.30;0.50;;;21.00;53.30;;;;;;6128100;29;20044;-50
2023/01/01 06:43:44;;;;;;;0.40;0.40;;;20.90;53.30;;;;;;6127434;29;20028;-49
2023/01/01 06:46:46;;;;;;;1.00;0.30;;;21.10;53.40;;;;;;6111374;29;20072;-50
2023/01/01 06:49:47;;;;;;;1.05;0.38;;;20.90;53.30;;;;;;6127213;29;20524;-51
2023/01/01 06:52:49;;;;;;;0.52;0.28;;;20.90;53.40;;;;;;6127247;29;20032;-48
2023/01/01 06:55:51;;;;;;;0.63;0.22;;;20.90;53.40;;;;;;6127496;29;20493;-49
2023/01/01 06:58:58;;;;;;;0.60;0.47;;;21.00;53.50;;;;;;6126341;29;20071;-50
2023/01/01 07:02:00;;;;;;;0.50;0.30;;;20.90;53.40;;;;;;6125899;29;20080;-50
2023/01/01 07:05:01;;;;;;;;;;;21.00;53.40;;;;;;6127284;29;20056;-51
2023/01/01 07:08:03;;;;;;;1.00;0.35;;;20.50;53.30;;;;;;6127253;29;19938;-46
2023/01/01 07:11:05;;;;;;;1.08;0.28;;;20.90;53.40;;;;;;6126534;29;20051;-51
2023/01/01 07:14:06;;;;;;;;;;;20.90;53.30;;;;;;6127040;29;20071;-51
2023/01/01 07:17:08;;;;;;;1.27;0.40;;;20.90;53.30;;;;;;6125847;29;19923;-51
2023/01/01 07:20:09;;;;;;;;;;;20.90;53.30;;;;;;6126763;29;20040;-51
2023/01/01 07:23:11;;;;;;;0.25;0.20;;;20.90;53.20;;;;;;6125977;29;19930;-48
2023/01/01 07:26:13;;;;;;;0.50;0.32;;;21.00;53.20;;;;;;6125556;29;20051;-50
2023/01/01 07:29:14;;;;;;;0.38;0.20;;;20.70;52.80;;;;;;6126213;29;20048;-49
2023/01/01 07:32:15;;;;;;;;;;;20.90;52.80;;;;;;6125812;29;20088;-51
2023/01/01 07:35:17;;;;;;;1.15;0.40;;;20.80;52.70;;;;;;6125514;29;19996;-49
2023/01/01 07:38:19;;;;;;;0.63;0.30;;;20.90;52.70;;;;;;6126448;29;20044;-50
2023/01/01 07:41:20;;;;;;;1.23;0.55;;;20.80;52.40;;;;;;6126227;29;20048;-51
2023/01/01 07:44:21;;;;;;;;;;;20.80;52.10;;;;;;6125937;29;20072;-51
2023/01/01 07:47:25;;;;;;;0.70;0.30;;;20.90;52.20;;;;;;6125493;29;19947;-46
2023/01/01 07:50:28;;;;;;;0.47;0.20;;;21.00;52.10;;;;;;6107744;29;20044;-51
2023/01/01 07:53:30;;;;;;;0.70;0.20;;;21.10;52.00;;;;;;6107548;29;20139;-50
2023/01/01 07:56:33;;;;;;;0.45;0.30;;;20.60;51.60;;;;;;6123703;29;20052;-50
2023/01/01 07:59:35;;;;;;;0.20;0.20;;;21.00;51.60;;;;;;6123186;29;20048;-51
2023/01/01 08:02:37;;;;;;;0.30;0.20;;;21.00;51.60;;;;;;6123528;29;20059;-50
2023/01/01 08:05:38;;;;;;;;;;;20.70;51.40;;;;;;6123559;29;20056;-51
2023/01/01 08:08:41;;;;;;;0.32;0.20;;;20.80;51.50;;;;;;6123804;29;19923;-51
2023/01/01 08:11:42;;;;;;;0.68;0.40;;;20.80;51.50;;;;;;6123644;29;20071;-50
2023/01/01 08:14:43;;;;;;;;;;;20.90;51.50;;;;;;6123505;29;20052;-51
2023/01/01 08:17:45;;;;;;;0.30;0.20;;;20.80;51.60;;;;;;6123372;29;19923;-49
2023/01/01 08:20:48;;;;;;;0.77;0.22;;;20.90;51.60;;;;;;6123409;29;20044;-51
2023/01/01 08:23:50;;;;;;;0.25;0.17;;;20.80;51.60;;;;;;6123459;29;20044;-50
2023/01/01 08:26:52;;;;;;;0.22;0.20;;;20.80;51.80;;;;;;6123616;29;20083;-50
2023/01/01 08:29:53;;;;;;;0.52;0.20;;;20.90;51.90;;;;;;6107491;29;20051;-50
2023/01/01 08:32:55;;;;;;;0.52;0.10;;;20.80;52.00;;;;;;6123793;29;20044;-49
2023/01/01 08:35:57;;;;;;;;;;;20.90;52.20;;;;;;6131522;23;20048;-50
2023/01/01 08:38:59;;;;;;;0.35;0.35;;;20.90;52.30;;;;;;6124518;29;19950;-48
2023/01/01 08:42:01;;;;;;;0.40;0.28;;;20.40;52.10;;;;;;6107221;29;20040;-51
2023/01/01 08:45:07;;;;;;;0.50;0.30;;;20.90;52.50;;;;;;6123960;29;20055;-49
2023/01/01 08:48:10;;;;;;;0.70;0.32;;;21.00;52.80;;;;;;6124012;29;20062;-48
2023/01/01 08:51:11;;;;;;;0.77;0.30;;;20.80;52.80;;;;;;6123748;29;20045;-47
2023/01/01 08:54:13;;;;;;;0.90;0.30;;;20.90;53.00;;;;;;6123674;29;20044;-50
2023/01/01 08:57:15;;;;;;;1.20;0.40;;;20.80;53.10;;;;;;6123493;29;20047;-49
2023/01/01 09:00:17;;;;;;;0.75;0.22;;;20.90;53.30;;;;;;6123331;29;20063;-50
2023/01/01 09:03:18;;;;;;;0.90;0.30;;;20.90;53.50;;;;;;6104974;29;20051;-51
2023/01/01 09:06:20;;;;;;;;;;;20.90;53.60;;;;;;6123816;29;20056;-49
2023/01/01 09:09:22;;;;;;;0.57;0.20;;;20.80;53.70;;;;;;6122676;29;19970;-49
2023/01/01 09:12:32;;;;;;;0.63;0.30;;;20.90;53.70;;;;;;6107295;29;20040;-49
2023/01/01 09:15:34;;;;;;;0.65;0.35;;;20.90;53.90;;;;;;6123279;29;20055;-50
2023/01/01 09:18:35;;;;;;;;;;;20.90;54.00;;;;;;6123189;29;20048;-49
2023/01/01 09:21:36;;;;;;;1.00;0.40;;;21.00;54.20;;;;;;6122736;29;19923;-46
2023/01/01 09:24:38;;;;;;;0.68;0.15;;;20.80;54.00;;;;;;6122275;29;20048;-51
2023/01/01 09:27:40;;;;;;;0.88;0.30;;;20.90;54.20;;;;;;6121835;29;20055;-51
2023/01/01 09:30:41;;;;;;;0.80;0.30;;;20.70;54.20;;;;;;6121692;29;20044;-51
2023/01/01 09:33:43;;;;;;;;;;;20.80;54.30;;;;;;6122741;29;20044;-47
2023/01/01 09:36:45;;;;;;;0.35;0.25;;;20.90;54.50;;;;;;6122499;29;19923;-49
2023/01/01 09:39:47;;;;;;;0.47;0.20;;;20.80;54.30;;;;;;6122580;29;20040;-50
2023/01/01 09:42:52;;;;;;;0.43;0.30;;;20.90;54.50;;;;;;6121731;29;20041;-48
2023/01/01 09:45:59;;;;;;;0.57;0.38;;;20.80;54.50;;;;;;6121184;29;20048;-51
2023/01/01 09:49:05;;;;;;;0.57;0.20;;;20.80;54.50;;;;;;6121565;29;20049;-51
2023/01/01 09:52:12;;;;;;;0.68;0.30;;;20.60;54.40;;;;;;6104484;29;20048;-51
2023/01/01 09:55:23;;;;;;;0.93;0.30;;;20.90;54.60;;;;;;6124232;29;20386;-51
2023/01/01 09:58:27;;;;;;;0.50;0.20;;;21.10;54.70;;;;;;6125765;29;20048;-50
2023/01/01 10:01:42;;;;;;;0.70;0.20;;;20.90;54.60;;;;;;6108782;29;20052;-49
2023/01/01 10:04:57;;;;;;;0.57;0.30;;;20.90;54.60;;;;;;6125556;29;20044;-51
2023/01/01 10:08:03;;;;;;;0.88;0.30;;;20.70;54.50;;;;;;6125462;29;20096;-47
2023/01/01 10:11:15;;;;;;;0.43;0.40;;;20.80;54.50;;;;;;6110167;29;20048;-51
2023/01/01 10:14:25;;;;;;;0.20;0.10;;;21.00;54.60;;;;;;6125874;29;20394;-51
2023/01/01 10:17:33;;;;;;;0.75;0.52;;;20.90;54.60;;;;;;6125677;29;20044;-47
2023/01/01 10:20:40;;;;;;;0.63;0.30;;;21.00;54.60;;;;;;6125619;29;20095;-49
2023/01/01 10:23:46;;;;;;;1.05;0.40;;;21.00;54.60;;;;;;6125103;29;20047;-49
2023/01/01 10:26:50;;;;;;;0.30;0.30;;;20.70;54.40;;;;;;6108556;29;20060;-50
2023/01/01 10:29:52;;;;;;;0.70;0.40;;;21.00;54.60;;;;;;6125882;29;20040;-49
2023/01/01 10:32:59;;;;;;;0.68;0.30;;;21.00;54.60;;;;;;6108882;29;20055;-49
2023/01/01 10:36:01;;;;;;;0.50;0.30;;;20.90;54.50;;;;;;6131675;23;20036;-47
2023/01/01 10:39:03;;;;;;;0.28;0.20;;;20.90;54.50;;;;;;6124540;29;20048;-51
2023/01/01 10:42:05;;;;;;;;;;;21.00;54.60;;;;;;6124625;29;20047;-50
2023/01/01 10:45:10;;;;;;;;;;;20.90;54.60;;;;;;6124948;29;19923;-50
2023/01/01 10:48:16;;;;;;;0.50;0.30;;;21.20;54.70;;;;;;6108533;29;19958;-51
2023/01/01 10:51:25;;;;;;;0.47;0.30;;;21.00;54.60;;;;;;6107558;29;20417;-50
2023/01/01 10:54:33;;;;;;;0.38;0.25;;;21.00;54.60;;;;;;6124752;29;20047;-48
2023/01/01 10:57:37;;;;;;;0.50;0.30;;;21.00;54.70;;;;;;6106615;29;20112;-50
2023/01/01 11:00:38;;;;;;;0.77;0.30;;;20.80;54.60;;;;;;6123717;29;20500;-50
2023/01/01 11:03:56;;;;;;;0.80;0.20;;;21.00;54.70;;;;;;6124634;29;20063;-49
2023/01/01 11:06:58;;;;;;;0.30;0.30;;;20.90;54.70;;;;;;6110030;29;20044;-51
2023/01/01 11:10:02;;;;;;;0.77;0.38;;;21.10;54.80;;;;;;6123724;29;20055;-49
2023/01/01 11:13:17;;;;;;;0.25;0.25;;;21.00;54.80;;;;;;6107653;29;20107;-50
2023/01/01 11:16:19;;;;;;;0.50;0.35;;;21.00;54.90;;;;;;6123638;29;20133;-49
2023/01/01 11:19:23;;;;;;;0.43;0.30;;;21.00;54.80;;;;;;6124063;29;20067;-48
2023/01/01 11:22:40;;;;;;;0.57;0.30;;;21.20;55.00;;;;;;6107925;29;20040;-49
2023/01/01 11:25:57;;;;;;;0.90;0.30;;;21.00;54.90;;;;;;6107419;29;20052;-50
2023/01/01 11:29:04;;;;;;;0.60;0.30;;;21.10;55.00;;;;;;6107691;29;20048;-50
2023/01/01 11:32:07;;;;;;;0.43;0.20;;;21.00;55.00;;;;;;6123382;29;20060;-49
2023/01/01 11:35:17;;;;;;;1.35;0.40;;;21.00;55.00;;;;;;6124051;29;20068;-51
2023/01/01 11:38:20;;;;;;;0.43;0.20;;;20.90;55.00;;;;;;6106711;29;20044;-51
2023/01/01 11:41:40;;;;;;;0.25;0.20;;;21.10;55.10;;;;;;6108677;29;20062;-49
2023/01/01 11:44:46;;;;;;;0.47;0.20;;;21.10;55.20;;;;;;6124464;29;20055;-51
2023/01/01 11:47:54;;;;;;;0.40;0.20;;;21.00;55.10;;;;;;6106444;29;20055;-48
2023/01/01 11:50:59;;;;;;;0.88;0.52;;;21.00;55.20;;;;;;6107412;29;20049;-51
2023/01/01 11:54:10;;;;;;;0.50;0.30;;;20.90;55.80;;;;;;6107400;29;20040;-48
2023/01/01 11:57:16;;;;;;;0.22;0.20;;;21.00;55.40;;;;;;6122228;29;20052;-51
2023/01/01 12:00:19;;;;;;;0.90;0.30;;;21.00;55.40;;;;;;6122729;29;20068;-51
2023/01/01 12:03:24;;;;;;;0.55;0.22;;;21.00;55.50;;;;;;6123451;29;20056;-49
2023/01/01 12:06:40;;;;;;;0.28;0.25;;;21.10;55.60;;;;;;6108522;29;20133;-48
2023/01/01 12:09:50;;;;;;;0.65;0.40;;;21.00;55.70;;;;;;6123254;29;20060;-49
2023/01/01 12:12:57;;;;;;;0.40;0.30;;;21.00;55.70;;;;;;6107147;29;20051;-49
2023/01/01 12:16:09;;;;;;;0.65;0.40;;;21.10;55.80;;;;;;6123179;29;20048;-48
2023/01/01 12:19:14;;;;;;;0.60;0.20;;;21.00;55.90;;;;;;6123592;29;20048;-51
2023/01/01 12:22:18;;;;;;;0.10;0.10;;;20.90;55.80;;;;;;6106949;29;20052;-50
2023/01/01 12:25:20;;;;;;;0.20;0.20;;;21.00;55.90;;;;;;6106065;29;20052;-49
2023/01/01 12:28:33;;;;;;;0.40;0.30;;;21.00;55.90;;;;;;6123811;29;20401;-51
2023/01/01 12:31:43;;;;;;;0.50;0.30;;;21.00;56.00;;;;;;6122733;29;20044;-51
2023/01/01 12:34:51;;;;;;;0.52;0.13;;;21.10;56.00;;;;;;6123491;29;20068;-48
2023/01/01 12:38:01;;;;;;;0.40;0.20;;;21.00;56.00;;;;;;6122978;29;20048;-51
2023/01/01 12:41:10;;;;;;;0.65;0.20;;;21.00;56.00;;;;;;6121741;29;20044;-51
2023/01/01 12:44:24;;;;;;;0.22;0.20;;;21.00;55.90;;;;;;6122692;29;20048;-51
2023/01/01 12:47:37;;;;;;;0.17;0.10;;;21.00;56.00;;;;;;6121708;29;20059;-51
2023/01/01 12:50:48;;;;;;;0.60;0.30;;;20.90;55.90;;;;;;6121357;29;20047;-49
2023/01/01 12:54:13;;;;;;;0.60;0.20;;;21.00;55.90;;;;;;6122198;29;20048;-49
2023/01/01 12:57:24;;;;;;;0.38;0.30;;;21.00;55.90;;;;;;6122208;29;20104;-50
2023/01/01 13:00:27;;;;;;;0.20;0.10;;;21.00;55.80;;;;;;6122183;29;20487;-51
2023/01/01 13:03:35;;;;;;;0.20;0.20;;;21.10;55.80;;;;;;6121050;29;20060;-49
2023/01/01 13:06:40;;;;;;;0.60;0.30;;;20.90;55.70;;;;;;6104791;29;20055;-49
2023/01/01 13:09:44;;;;;;;0.17;0.17;;;21.00;55.70;;;;;;6121895;29;20553;-51
2023/01/01 13:12:46;;;;;;;0.20;0.20;;;20.90;55.60;;;;;;6122077;29;20040;-49
2023/01/01 13:15:52;;;;;;;0.22;0.22;;;21.00;55.70;;;;;;6122381;29;20056;-51
2023/01/01 13:18:54;;;;;;;0.45;0.22;;;21.00;55.70;;;;;;6105593;29;20047;-49
2023/01/01 13:22:28;;;;;;;0.10;0.10;;;21.10;55.70;;;;;;6122162;29;20051;-50
2023/01/01 13:25:30;;;;;;;0.30;0.20;;;20.80;55.60;;;;;;6109123;29;20068;-51
2023/01/01 13:28:31;;;;;;;0.20;0.20;;;21.00;55.70;;;;;;6122128;29;20039;-49
2023/01/01 13:31:47;;;;;;;;;;;20.90;55.70;;;;;;6121956;29;20048;-51
2023/01/01 13:35:18;;;;;;;0.30;0.30;;;20.70;56.30;;;;;;6113489;23;19927;-49
2023/01/01 13:38:48;;;;;;;0.20;0.20;;;21.00;55.80;;;;;;6108877;29;20044;-51
2023/01/01 13:41:50;;;;;;;0.65;0.30;;;20.90;55.80;;;;;;6108708;29;20071;-47
2023/01/01 13:44:52;;;;;;;0.30;0.30;;;20.90;55.90;;;;;;6121451;29;20040;-48
2023/01/01 13:48:13;;;;;;;0.55;0.38;;;20.90;55.90;;;;;;6121802;29;20040;-51
2023/01/01 13:51:29;;;;;;;0.60;0.20;;;20.90;56.00;;;;;;6121195;29;20044;-52
2023/01/01 13:55:28;;;;;;;0.65;0.47;;;21.10;56.20;;;;;;6108068;29;20051;-47
2023/01/01 13:58:55;;;;;;;0.90;0.50;;;21.00;56.20;;;;;;6122274;29;20072;-50
2023/01/01 14:02:10;;;;;;;0.95;0.50;;;21.00;56.30;;;;;;6121061;29;20059;-50
2023/01/01 14:05:16;;;;;;;0.90;0.45;;;21.00;56.30;;;;;;6121117;29;20051;-49
2023/01/01 14:08:28;;;;;;;0.30;0.30;;;21.00;56.30;;;;;;6105819;29;20044;-48
2023/01/01 14:11:30;;;;;;;0.47;0.40;;;21.00;56.40;;;;;;6104929;29;20048;-48
2023/01/01 14:14:34;;;;;;;;;;;21.00;56.40;;;;;;6121956;29;20048;-51
2023/01/01 14:17:36;;;;;;;0.70;0.52;;;21.10;56.60;;;;;;6121351;29;19931;-50
2023/01/01 14:20:40;;;;;;;;;;;21.00;56.40;;;;;;6120877;29;20040;-51
2023/01/01 14:23:44;;;;;;;0.50;0.40;;;20.90;56.40;;;;;;6103841;29;19956;-50
2023/01/01 14:26:46;;;;;;;1.00;0.60;;;21.10;56.40;;;;;;6104997;29;20051;-51
2023/01/01 14:29:50;;;;;;;0.73;0.40;;;20.90;56.40;;;;;;6121480;29;20048;-48
2023/01/01 14:32:56;;;;;;;0.60;0.50;;;21.00;56.50;;;;;;6120865;29;20047;-50
2023/01/01 14:35:59;;;;;;;0.90;0.50;;;20.90;56.50;;;;;;6127738;23;20052;-51
2023/01/01 14:39:00;;;;;;;0.40;0.40;;;20.70;56.40;;;;;;6120784;29;20040;-49
2023/01/01 14:42:03;;;;;;;;;;;21.00;56.60;;;;;;6123477;29;20069;-51
2023/01/01 14:45:13;;;;;;;0.80;0.50;;;20.90;56.60;;;;;;6124892;29;19923;-49
2023/01/01 14:48:19;;;;;;;0.73;0.40;;;20.80;56.50;;;;;;6124715;29;20098;-50
2023/01/01 14:51:23;;;;;;;0.70;0.50;;;20.90;56.60;;;;;;6123329;29;20044;-51
2023/01/01 14:54:30;;;;;;;0.95;0.50;;;21.00;56.70;;;;;;6123926;29;20048;-50
2023/01/01 14:57:34;;;;;;;0.70;0.43;;;20.90;56.70;;;;;;6124608;29;20047;-50
2023/01/01 15:00:36;;;;;;;0.50;0.40;;;20.70;56.50;;;;;;6107627;29;20048;-51
2023/01/01 15:03:38;;;;;;;0.50;0.30;;;21.00;56.70;;;;;;6123617;29;20044;-49
2023/01/01 15:06:40;;;;;;;1.35;0.50;;;21.00;57.40;;;;;;6123674;29;20063;-50
2023/01/01 15:09:42;;;;;;;0.40;0.35;;;20.90;56.70;;;;;;6106615;29;20390;-50
2023/01/01 15:12:43;;;;;;;;;;;21.00;56.70;;;;;;6123431;29;20051;-51
2023/01/01 15:15:46;;;;;;;0.50;0.40;;;20.90;56.70;;;;;;6122864;29;20419;-51
2023/01/01 15:18:50;;;;;;;0.73;0.40;;;20.90;56.60;;;;;;6107102;29;20052;-51
2023/01/01 15:21:52;;;;;;;0.43;0.43;;;21.10;56.80;;;;;;6122903;29;20072;-50
2023/01/01 15:24:54;;;;;;;0.63;0.40;;;21.00;56.70;;;;;;6123264;29;20055;-50
2023/01/01 15:27:56;;;;;;;1.15;0.60;;;20.90;56.70;;;;;;6122898;29;20044;-50
2023/01/01 15:30:59;;;;;;;1.17;0.50;;;21.00;56.70;;;;;;6123370;29;20044;-50
2023/01/01 15:34:01;;;;;;;0.65;0.50;;;21.00;56.70;;;;;;6123100;29;20041;-49
2023/01/01 15:37:09;;;;;;;0.52;0.47;;;21.00;56.70;;;;;;6123196;29;20048;-49
2023/01/01 15:40:30;;;;;;;0.73;0.70;;;21.00;56.60;;;;;;6106605;29;20044;-50
2023/01/01 15:43:32;;;;;;;0.90;0.70;;;21.00;56.60;;;;;;6109957;29;20048;-49
2023/01/01 15:46:34;;;;;;;;;;;21.10;56.60;;;;;;6122738;29;20055;-51
2023/01/01 15:49:35;;;;;;;;;;;20.80;56.40;;;;;;6123067;29;19923;-49
2023/01/01 15:52:38;;;;;;;0.75;0.63;;;20.70;56.40;;;;;;6121329;29;19923;-51
2023/01/01 15:55:44;;;;;;;0.50;0.50;;;21.00;56.40;;;;;;6122295;29;20048;-51
2023/01/01 15:58:52;;;;;;;0.80;0.70;;;20.80;56.20;;;;;;6121515;29;20047;-49
2023/01/01 16:02:09;;;;;;;0.90;0.70;;;20.90;56.20;;;;;;6123051;29;20541;-48
2023/01/01 16:05:14;;;;;;;1.23;0.75;;;20.90;56.20;;;;;;6121850;29;20044;-51
2023/01/01 16:08:16;;;;;;;0.80;0.60;;;21.00;56.20;;;;;;6105096;29;20047;-50
2023/01/01 16:11:17;;;;;;;0.80;0.68;;;20.80;56.00;;;;;;6122062;29;20036;-51
2023/01/01 16:14:19;;;;;;;1.17;0.60;;;20.80;56.00;;;;;;6122502;29;20052;-50
2023/01/01 16:17:21;;;;;;;0.55;0.55;;;20.90;56.00;;;;;;6106400;29;20107;-51
2023/01/01 16:20:24;;;;;;;0.90;0.70;;;20.50;55.80;;;;;;6122004;29;20048;-51
2023/01/01 16:23:25;;;;;;;0.75;0.75;;;20.90;55.90;;;;;;6105897;29;20068;-51